Weather History for KAVK - November, 2013

Change the Weather History Date:

Saturday, November 9, 2013

  Actual Average Record
Temperature  
Mean Temperature 50 °F -  
Max Temperature 62 °F 62 °F 82 °F (1949)
Min Temperature 39 °F 39 °F 25 °F (1950)
Degree Days  
Heating Degree Days 14    
Moisture  
Dew Point 41 °F    
Average Humidity 72    
Maximum Humidity 93    
Minimum Humidity 51    
Precipitation  
Precipitation 0.00 in - - ()
Sea Level Pressure  
Sea Level Pressure 30.11 in    
Wind  
Wind Speed 8 mph (ESE)    
Max Wind Speed 14 mph    
Max Gust Speed -    
Visibility 10 miles    
Events      
Averages and records for this station are not official NWS values.
T = Trace of Precipitation, MM = Missing Value Source: NWS Daily Summary

Daily Weather History Graph

Daily Weather History Graph

Search for Another Location

Airport or City:

Trip Planner

Search our weather history database for the weather conditions in past years. The results will help you decide how hot, cold, wet, or windy it might be!

Date:

Astronomy

Nov. 09, 2013 Rise Set
Actual Time 7:06 AM CST 5:29 PM CST
Civil Twilight 6:39 AM CST 5:57 PM CST
Nautical Twilight 6:08 AM CST 6:27 PM CST
Astronomical Twilight 5:38 AM CST 6:58 PM CST
Moon 12:46 PM CST (11/9) 11:59 PM CST (11/9)
Length of Visible Light 11h 17m
Length of Day
10h 22m
Waxing Crescent, 44% of the Moon is Illuminated
Nov 9
Waxing Crescent
Nov 9
First Quarter
Nov 17
Full
Nov 25
Last Quarter
Dec 2
New

Hourly Weather History & Observations

Time (CST) Temp. Windchill Dew Point Humidity Pressure Visibility Wind Dir Wind Speed Gust Speed Precip Events Conditions
12:10 AM 50.0 °F - 35.6 °F 58% 29.97 in 10.0 mi SSW 12.7 mph - N/A   Partly Cloudy
12:30 AM 50.0 °F - 37.4 °F 62% 29.97 in 10.0 mi SSW 13.8 mph - N/A   Partly Cloudy
12:50 AM 48.2 °F - 37.4 °F 66% 29.98 in 10.0 mi SSW 11.5 mph - N/A   Clear
1:10 AM 48.2 °F - 39.2 °F 71% 29.98 in 10.0 mi SSW 11.5 mph - N/A   Clear
1:30 AM 48.2 °F - 39.2 °F 71% 29.98 in 10.0 mi SSW 5.8 mph - N/A   Clear
1:50 AM 46.4 °F 42.4 °F 39.2 °F 76% 29.98 in 10.0 mi SSW 8.1 mph - N/A   Clear
2:10 AM 46.4 °F 42.4 °F 39.2 °F 76% 29.98 in 10.0 mi SSW 8.1 mph - N/A   Clear
2:30 AM 46.4 °F 41.9 °F 39.2 °F 76% 29.98 in 10.0 mi SSW 9.2 mph - N/A   Clear
2:50 AM 44.6 °F 39.2 °F 39.2 °F 81% 29.98 in 10.0 mi SSW 10.4 mph - N/A   Partly Cloudy
3:10 AM 44.6 °F 39.7 °F 39.2 °F 81% 29.98 in 10.0 mi South 9.2 mph - N/A   Partly Cloudy
3:30 AM 44.6 °F 38.4 °F 39.2 °F 81% 29.97 in 10.0 mi SSW 12.7 mph - N/A   Partly Cloudy
3:50 AM 44.6 °F 41.4 °F 39.2 °F 81% 29.98 in 10.0 mi SSW 5.8 mph - N/A   Partly Cloudy
4:10 AM 44.6 °F 43.1 °F 39.2 °F 81% 29.99 in 10.0 mi ESE 3.5 mph - N/A   Clear
4:30 AM 42.8 °F 41.1 °F 37.4 °F 81% 30.00 in 10.0 mi SE 3.5 mph - N/A   Partly Cloudy
4:50 AM 41.0 °F 38.0 °F 37.4 °F 87% 30.00 in 10.0 mi SE 4.6 mph - N/A   Partly Cloudy
5:10 AM 41.0 °F 37.1 °F 37.4 °F 87% 30.02 in 10.0 mi ESE 5.8 mph - N/A   Partly Cloudy
5:30 AM 41.0 °F 37.1 °F 37.4 °F 87% 30.03 in 10.0 mi East 5.8 mph - N/A   Partly Cloudy
5:50 AM 41.0 °F 37.1 °F 37.4 °F 87% 30.03 in 10.0 mi SE 5.8 mph - N/A   Partly Cloudy
6:10 AM 39.2 °F 34.2 °F 37.4 °F 93% 30.04 in 10.0 mi SE 6.9 mph - N/A   Scattered Clouds
6:30 AM 39.2 °F 34.2 °F 37.4 °F 93% 30.05 in 10.0 mi SE 6.9 mph - N/A   Scattered Clouds
6:50 AM 39.2 °F 34.2 °F 37.4 °F 93% 30.05 in 10.0 mi SSE 6.9 mph - N/A   Partly Cloudy
7:10 AM 39.2 °F 34.2 °F 37.4 °F 93% 30.06 in 10.0 mi SSE 6.9 mph - N/A   Clear
7:30 AM 41.0 °F 37.1 °F 37.4 °F 87% 30.07 in 10.0 mi SSE 5.8 mph - N/A   Clear
7:50 AM 41.0 °F 38.0 °F 37.4 °F 87% 30.08 in 10.0 mi SE 4.6 mph - N/A   Clear
8:10 AM 44.6 °F 42.2 °F 39.2 °F 81% 30.09 in 10.0 mi SSE 4.6 mph - N/A   Clear
8:30 AM 46.4 °F 45.2 °F 41.0 °F 81% 30.10 in 10.0 mi SE 3.5 mph - N/A   Clear
8:50 AM 48.2 °F - 41.0 °F 76% 30.11 in 10.0 mi SE 4.6 mph - N/A   Clear
9:10 AM 50.0 °F - 39.2 °F 66% 30.12 in 10.0 mi SSE 5.8 mph - N/A   Clear
9:30 AM 50.0 °F - 39.2 °F 66% 30.12 in 10.0 mi South 5.8 mph - N/A   Clear
9:50 AM 50.0 °F - 39.2 °F 66% 30.12 in 10.0 mi SSW 5.8 mph - N/A   Clear
10:10 AM 51.8 °F - 39.2 °F 62% 30.13 in 10.0 mi Calm Calm - N/A   Clear
10:30 AM 53.6 °F - 39.2 °F 58% 30.13 in 10.0 mi SE 3.5 mph - N/A   Clear
10:50 AM 53.6 °F - 39.2 °F 58% 30.13 in 10.0 mi South 5.8 mph - N/A   Clear
11:10 AM 55.4 °F - 41.0 °F 58% 30.13 in 10.0 mi Calm Calm - N/A   Clear
11:30 AM 55.4 °F - 41.0 °F 58% 30.13 in 10.0 mi Calm Calm - N/A   Clear
11:50 AM 55.4 °F - 41.0 °F 58% 30.13 in 10.0 mi Calm Calm - N/A   Clear
12:10 PM 57.2 °F - 41.0 °F 55% 30.13 in 10.0 mi East 8.1 mph - N/A   Clear
12:30 PM 57.2 °F - 41.0 °F 55% 30.13 in 10.0 mi ESE 6.9 mph - N/A   Clear
12:50 PM 57.2 °F - 41.0 °F 55% 30.12 in 10.0 mi SE 9.2 mph - N/A   Clear
1:10 PM 59.0 °F - 41.0 °F 51% 30.12 in 10.0 mi East 6.9 mph - N/A   Clear
1:30 PM 59.0 °F - 41.0 °F 51% 30.12 in 10.0 mi ESE 5.8 mph - N/A   Clear
1:50 PM 59.0 °F - 41.0 °F 51% 30.12 in 10.0 mi ENE 8.1 mph - N/A   Clear
2:10 PM 59.0 °F - 41.0 °F 51% 30.12 in 10.0 mi East 10.4 mph - N/A   Clear
2:30 PM 60.8 °F - 42.8 °F 52% 30.12 in 10.0 mi East 11.5 mph - N/A   Clear
2:50 PM 60.8 °F - 42.8 °F 52% 30.12 in 10.0 mi ENE 10.4 mph - N/A   Clear
3:10 PM 60.8 °F - 42.8 °F 52% 30.12 in 10.0 mi East 10.4 mph - N/A   Clear
3:30 PM 62.6 °F - 44.6 °F 52% 30.12 in 10.0 mi East 11.5 mph - N/A   Clear
3:50 PM 60.8 °F - 44.6 °F 55% 30.13 in 10.0 mi East 9.2 mph - N/A   Clear
4:10 PM 60.8 °F - 44.6 °F 55% 30.14 in 10.0 mi East 9.2 mph - N/A   Clear
4:30 PM 59.0 °F - 44.6 °F 59% 30.15 in 10.0 mi East 9.2 mph - N/A   Clear
4:50 PM 59.0 °F - 44.6 °F 59% 30.15 in 10.0 mi East 8.1 mph - N/A   Clear
5:10 PM 57.2 °F - 44.6 °F 63% 30.15 in 10.0 mi East 6.9 mph - N/A   Clear
5:30 PM 55.4 °F - 44.6 °F 67% 30.16 in 10.0 mi East 6.9 mph - N/A   Clear
5:50 PM 53.6 °F - 44.6 °F 72% 30.17 in 10.0 mi East 5.8 mph - N/A   Clear
6:10 PM 53.6 °F - 44.6 °F 72% 30.18 in 10.0 mi East 6.9 mph - N/A   Mostly Cloudy
6:30 PM 53.6 °F - 44.6 °F 72% 30.19 in 10.0 mi East 6.9 mph - N/A   Overcast
6:50 PM 53.6 °F - 44.6 °F 72% 30.20 in 10.0 mi East 4.6 mph - N/A   Overcast
7:10 PM 53.6 °F - 44.6 °F 72% 30.21 in 10.0 mi NE 6.9 mph - N/A   Overcast
7:30 PM 51.8 °F - 44.6 °F 76% 30.21 in 10.0 mi ENE 5.8 mph - N/A   Mostly Cloudy
7:50 PM 50.0 °F - 44.6 °F 82% 30.21 in 10.0 mi ENE 4.6 mph - N/A   Mostly Cloudy
8:10 PM 50.0 °F - 44.6 °F 82% 30.21 in 10.0 mi ENE 5.8 mph - N/A   Scattered Clouds
8:30 PM 50.0 °F - 44.6 °F 82% 30.22 in 10.0 mi ENE 6.9 mph - N/A   Mostly Cloudy
8:50 PM 50.0 °F - 44.6 °F 82% 30.23 in 10.0 mi ENE 5.8 mph - N/A   Overcast
9:10 PM 50.0 °F - 44.6 °F 82% 30.24 in 10.0 mi ENE 5.8 mph - N/A   Overcast
9:30 PM 50.0 °F - 44.6 °F 82% 30.24 in 10.0 mi ENE 6.9 mph - N/A   Overcast
9:50 PM 50.0 °F - 44.6 °F 82% 30.25 in 10.0 mi ENE 6.9 mph - N/A   Overcast
10:10 PM 50.0 °F - 44.6 °F 82% 30.25 in 10.0 mi ENE 6.9 mph - N/A   Overcast
10:30 PM 50.0 °F - 42.8 °F 76% 30.26 in 10.0 mi NE 5.8 mph - N/A   Overcast
10:50 PM 48.2 °F - 42.8 °F 82% 30.26 in 10.0 mi NE 6.9 mph - N/A   Mostly Cloudy
11:10 PM 48.2 °F - 42.8 °F 82% 30.26 in 10.0 mi NNE 6.9 mph - N/A   Mostly Cloudy
11:30 PM 46.4 °F 43.5 °F 42.8 °F 87% 30.26 in 10.0 mi NNE 5.8 mph - N/A   Mostly Cloudy
11:50 PM 46.4 °F 42.9 °F 42.8 °F 87% 30.26 in 10.0 mi NNE 6.9 mph - N/A   Mostly Cloudy